Skip Navigation Links
NOAA logo - Click to go to the NOAA homepage
NOAA's National Weather Service
Alaska Aviation Weather Unit
  NWS logo - Click to go to the NWS homepage
Left Navbar Graphic     08 AKDT = 16 GMT

   
NOAA is celebrating 200 years of science, service, and stewardship. Visit the NOAA 200th celebration Web site to learn more.
USA.gov is the U.S. Government's official Web portal to all Federal, state and local government Web resources and services.
Facebook
NWS on Facebook

Important Change Regarding the AAWU Web Presence

 

Over the last several months, the AAWU has been working to navigate its webpages to a nationally supported server. Security, as well as other needs, have necessitated the change.  In the process, we have made an effort to enhance the functionality of our website, as well as some of our products. As of June 20, 2017, aawu.arh.noaa.gov will be discontinued. The new AAWU web address is weather.gov/aawu. It is now live and will run in-parallel with the old site until it is discontinued. Please send any feedback or questions regarding the new webpages to nws.ar.aawu.webauthors@noaa.gov.  Thank you for your patience during this time of transition.
AAWU Home :: Display TAF Add Bookmark
TAF PAKT 291208Z 2912/3012 15006KT P6SM FEW012 OVC020
     FM292000 13008KT P6SM SCT015 BKN060
     FM300000 13008KT P6SM SCT025 BKN180 AMD LTD TO CLD VIS AND
      WIND 2912/2915=

METAR PAKT 291053Z AUTO 16004KT 10SM OVC012 11/09 A3010= SPECI PAKT 291118Z AUTO 17004KT 10SM FEW011 OVC019 11/09 A3009 RMK AO2 T01060089 TSNO= METAR PAKT 291153Z AUTO 16003KT 10SM OVC020 11/09 A3009= METAR PAKT 291253Z AUTO 14003KT 10SM OVC022 11/09 A3009= SPECI PAKT 291348Z AUTO 14003KT 10SM BKN013 OVC022 11/09 A3008 RMK AO2 TSNO= METAR PAKT 291353Z AUTO 13003KT 10SM SCT013 OVC022 11/09 A3008= METAR PAKT 291453Z 15006KT 10SM SCT015 OVC022 12/09 A3008= PAKT 291455Z 15006KT 10SM FEW015 OVC022 12/09 A3008= SPECI PAKT 291455Z 15006KT 10SM FEW015 OVC022 12/09 A3008 RMK AO2 T01170089= METAR PAKT 291553Z 13006KT 10SM FEW016 OVC024 13/08 A3008=
 Alaska TAF Map

NOAA's National Weather Service
Alaska Aviation Weather Unit
6930 Sand Lake Road
Anchorage, AK 99502-1845
Disclaimer
Credits
Glossary
Privacy Policy
About Us
Career Opportunities
Contact AAWU Internet Services Site last modified: April, 17th 2012